sensor_id;sensor_type;location;lat;lon;timestamp;temperature;humidity
51007;DHT22;37034;47.886;-3.904;2022-10-04T00:01:42;19.40;90.60
51007;DHT22;37034;47.886;-3.904;2022-10-04T00:04:21;19.40;90.80
51007;DHT22;37034;47.886;-3.904;2022-10-04T00:09:26;19.50;90.90
51007;DHT22;37034;47.886;-3.904;2022-10-04T00:11:55;19.50;90.80
51007;DHT22;37034;47.886;-3.904;2022-10-04T00:14:34;19.50;90.70
51007;DHT22;37034;47.886;-3.904;2022-10-04T00:17:09;19.40;90.70
51007;DHT22;37034;47.886;-3.904;2022-10-04T00:19:42;19.50;90.90
51007;DHT22;37034;47.886;-3.904;2022-10-04T00:22:11;19.50;90.90
51007;DHT22;37034;47.886;-3.904;2022-10-04T00:27:33;19.50;91.10
51007;DHT22;37034;47.886;-3.904;2022-10-04T00:38:11;19.50;91.00
51007;DHT22;37034;47.886;-3.904;2022-10-04T00:43:13;19.50;91.00
51007;DHT22;37034;47.886;-3.904;2022-10-04T00:53:36;19.60;91.10
51007;DHT22;37034;47.886;-3.904;2022-10-04T00:56:07;19.60;91.00
51007;DHT22;37034;47.886;-3.904;2022-10-04T00:58:44;19.60;91.00
51007;DHT22;37034;47.886;-3.904;2022-10-04T01:01:11;19.60;91.10
51007;DHT22;37034;47.886;-3.904;2022-10-04T01:03:40;19.60;91.10
51007;DHT22;37034;47.886;-3.904;2022-10-04T01:06:09;19.60;91.10
51007;DHT22;37034;47.886;-3.904;2022-10-04T01:08:46;19.60;91.10
51007;DHT22;37034;47.886;-3.904;2022-10-04T01:11:17;19.60;91.10
51007;DHT22;37034;47.886;-3.904;2022-10-04T01:13:54;19.60;91.10
51007;DHT22;37034;47.886;-3.904;2022-10-04T01:16:25;19.60;91.10
51007;DHT22;37034;47.886;-3.904;2022-10-04T01:18:51;19.60;91.10
51007;DHT22;37034;47.886;-3.904;2022-10-04T01:23:49;19.60;91.10
51007;DHT22;37034;47.886;-3.904;2022-10-04T01:29:11;19.60;91.20
51007;DHT22;37034;47.886;-3.904;2022-10-04T01:31:43;19.50;91.10
51007;DHT22;37034;47.886;-3.904;2022-10-04T01:34:18;19.60;91.30
51007;DHT22;37034;47.886;-3.904;2022-10-04T01:36:46;19.50;91.00
51007;DHT22;37034;47.886;-3.904;2022-10-04T01:39:14;19.50;91.00
51007;DHT22;37034;47.886;-3.904;2022-10-04T01:44:09;19.40;91.00
51007;DHT22;37034;47.886;-3.904;2022-10-04T01:46:38;19.40;91.10
51007;DHT22;37034;47.886;-3.904;2022-10-04T01:49:11;19.40;91.10
51007;DHT22;37034;47.886;-3.904;2022-10-04T01:51:43;19.40;91.00
51007;DHT22;37034;47.886;-3.904;2022-10-04T01:54:18;19.30;91.00
51007;DHT22;37034;47.886;-3.904;2022-10-04T01:57:24;19.30;91.10
51007;DHT22;37034;47.886;-3.904;2022-10-04T01:59:56;19.20;91.30
51007;DHT22;37034;47.886;-3.904;2022-10-04T02:04:56;19.20;91.10
51007;DHT22;37034;47.886;-3.904;2022-10-04T02:07:22;19.20;91.10
51007;DHT22;37034;47.886;-3.904;2022-10-04T02:09:56;19.20;91.10
51007;DHT22;37034;47.886;-3.904;2022-10-04T02:12:25;19.10;91.20
51007;DHT22;37034;47.886;-3.904;2022-10-04T02:14:53;19.10;91.20
51007;DHT22;37034;47.886;-3.904;2022-10-04T02:17:27;19.10;91.20
51007;DHT22;37034;47.886;-3.904;2022-10-04T02:19:54;19.10;91.20
51007;DHT22;37034;47.886;-3.904;2022-10-04T02:22:22;19.20;91.20
51007;DHT22;37034;47.886;-3.904;2022-10-04T02:24:49;19.10;91.10
51007;DHT22;37034;47.886;-3.904;2022-10-04T02:27:17;19.10;91.00
51007;DHT22;37034;47.886;-3.904;2022-10-04T02:29:43;19.10;91.00
51007;DHT22;37034;47.886;-3.904;2022-10-04T02:32:09;19.00;91.00
51007;DHT22;37034;47.886;-3.904;2022-10-04T02:34:55;19.00;91.00
51007;DHT22;37034;47.886;-3.904;2022-10-04T02:37:22;19.00;90.90
51007;DHT22;37034;47.886;-3.904;2022-10-04T02:40:02;18.90;90.90
51007;DHT22;37034;47.886;-3.904;2022-10-04T02:42:52;18.90;91.00
51007;DHT22;37034;47.886;-3.904;2022-10-04T02:48:27;18.80;90.90
51007;DHT22;37034;47.886;-3.904;2022-10-04T02:50:58;18.60;90.70
51007;DHT22;37034;47.886;-3.904;2022-10-04T02:53:46;18.60;90.60
51007;DHT22;37034;47.886;-3.904;2022-10-04T02:56:14;18.50;90.60
51007;DHT22;37034;47.886;-3.904;2022-10-04T02:58:40;18.40;90.70
51007;DHT22;37034;47.886;-3.904;2022-10-04T03:01:13;18.40;90.80
51007;DHT22;37034;47.886;-3.904;2022-10-04T03:03:44;18.30;90.90
51007;DHT22;37034;47.886;-3.904;2022-10-04T03:06:14;18.20;90.90
51007;DHT22;37034;47.886;-3.904;2022-10-04T03:11:08;18.20;91.10
51007;DHT22;37034;47.886;-3.904;2022-10-04T03:13:36;18.20;91.40
51007;DHT22;37034;47.886;-3.904;2022-10-04T03:16:02;18.20;91.10
51007;DHT22;37034;47.886;-3.904;2022-10-04T03:18:28;18.20;91.10
51007;DHT22;37034;47.886;-3.904;2022-10-04T03:20:56;18.30;91.10
51007;DHT22;37034;47.886;-3.904;2022-10-04T03:23:22;18.30;91.40
51007;DHT22;37034;47.886;-3.904;2022-10-04T03:25:56;18.30;91.10
51007;DHT22;37034;47.886;-3.904;2022-10-04T03:28:23;18.30;91.00
51007;DHT22;37034;47.886;-3.904;2022-10-04T03:30:49;18.30;91.10
51007;DHT22;37034;47.886;-3.904;2022-10-04T03:33:19;18.30;91.00
51007;DHT22;37034;47.886;-3.904;2022-10-04T03:35:48;18.30;91.00
51007;DHT22;37034;47.886;-3.904;2022-10-04T03:38:15;18.20;91.00
51007;DHT22;37034;47.886;-3.904;2022-10-04T03:40:47;18.30;91.00
51007;DHT22;37034;47.886;-3.904;2022-10-04T03:43:16;18.20;91.00
51007;DHT22;37034;47.886;-3.904;2022-10-04T03:45:42;18.20;91.00
51007;DHT22;37034;47.886;-3.904;2022-10-04T03:48:12;18.20;90.90
51007;DHT22;37034;47.886;-3.904;2022-10-04T03:50:46;18.20;90.90
51007;DHT22;37034;47.886;-3.904;2022-10-04T03:53:34;18.20;90.80
51007;DHT22;37034;47.886;-3.904;2022-10-04T03:56:26;18.20;90.60
51007;DHT22;37034;47.886;-3.904;2022-10-04T03:58:53;18.20;90.70
51007;DHT22;37034;47.886;-3.904;2022-10-04T04:01:39;18.10;90.80
51007;DHT22;37034;47.886;-3.904;2022-10-04T04:07:18;18.20;90.60
51007;DHT22;37034;47.886;-3.904;2022-10-04T04:12:39;18.20;90.70
51007;DHT22;37034;47.886;-3.904;2022-10-04T04:15:11;18.20;90.60
51007;DHT22;37034;47.886;-3.904;2022-10-04T04:17:41;18.20;90.60
51007;DHT22;37034;47.886;-3.904;2022-10-04T04:20:30;18.10;90.40
51007;DHT22;37034;47.886;-3.904;2022-10-04T04:23:24;18.10;90.40
51007;DHT22;37034;47.886;-3.904;2022-10-04T04:25:56;18.10;90.40
51007;DHT22;37034;47.886;-3.904;2022-10-04T04:28:31;18.10;90.50
51007;DHT22;37034;47.886;-3.904;2022-10-04T04:31:05;18.20;90.60
51007;DHT22;37034;47.886;-3.904;2022-10-04T04:33:43;18.20;90.50
51007;DHT22;37034;47.886;-3.904;2022-10-04T04:36:14;18.20;90.40
51007;DHT22;37034;47.886;-3.904;2022-10-04T04:38:40;18.20;90.40
51007;DHT22;37034;47.886;-3.904;2022-10-04T04:41:28;18.20;90.20
51007;DHT22;37034;47.886;-3.904;2022-10-04T04:43:56;18.20;90.30
51007;DHT22;37034;47.886;-3.904;2022-10-04T04:46:22;18.20;90.30
51007;DHT22;37034;47.886;-3.904;2022-10-04T04:48:53;18.20;90.20
51007;DHT22;37034;47.886;-3.904;2022-10-04T04:51:22;18.20;90.20
51007;DHT22;37034;47.886;-3.904;2022-10-04T04:53:50;18.20;90.20
51007;DHT22;37034;47.886;-3.904;2022-10-04T04:56:18;18.20;90.10
51007;DHT22;37034;47.886;-3.904;2022-10-04T04:58:46;18.20;90.20
51007;DHT22;37034;47.886;-3.904;2022-10-04T05:03:44;18.20;90.40
51007;DHT22;37034;47.886;-3.904;2022-10-04T05:06:27;18.30;90.00
51007;DHT22;37034;47.886;-3.904;2022-10-04T05:08:54;18.20;89.90
51007;DHT22;37034;47.886;-3.904;2022-10-04T05:11:21;18.20;90.00
51007;DHT22;37034;47.886;-3.904;2022-10-04T05:14:01;18.20;90.00
51007;DHT22;37034;47.886;-3.904;2022-10-04T05:16:40;18.20;90.10
51007;DHT22;37034;47.886;-3.904;2022-10-04T05:19:23;18.20;90.10
51007;DHT22;37034;47.886;-3.904;2022-10-04T05:21:53;18.30;90.10
51007;DHT22;37034;47.886;-3.904;2022-10-04T05:24:26;18.40;90.10
51007;DHT22;37034;47.886;-3.904;2022-10-04T05:26:59;18.30;90.10
51007;DHT22;37034;47.886;-3.904;2022-10-04T05:29:28;18.30;90.00
51007;DHT22;37034;47.886;-3.904;2022-10-04T05:34:39;18.30;89.80
51007;DHT22;37034;47.886;-3.904;2022-10-04T05:42:51;18.30;89.80
51007;DHT22;37034;47.886;-3.904;2022-10-04T05:45:36;18.30;89.70
51007;DHT22;37034;47.886;-3.904;2022-10-04T05:48:06;18.30;89.30
51007;DHT22;37034;47.886;-3.904;2022-10-04T05:50:39;18.30;89.70
51007;DHT22;37034;47.886;-3.904;2022-10-04T05:53:31;18.30;89.60
51007;DHT22;37034;47.886;-3.904;2022-10-04T06:03:59;18.40;89.80
51007;DHT22;37034;47.886;-3.904;2022-10-04T06:07:02;18.30;90.00
51007;DHT22;37034;47.886;-3.904;2022-10-04T06:12:45;18.40;89.70
51007;DHT22;37034;47.886;-3.904;2022-10-04T06:21:02;18.40;89.80
51007;DHT22;37034;47.886;-3.904;2022-10-04T06:23:32;18.30;90.00
51007;DHT22;37034;47.886;-3.904;2022-10-04T06:26:08;18.30;89.90
51007;DHT22;37034;47.886;-3.904;2022-10-04T06:28:46;18.30;90.00
51007;DHT22;37034;47.886;-3.904;2022-10-04T06:42:38;18.30;90.00
51007;DHT22;37034;47.886;-3.904;2022-10-04T06:50:48;18.40;90.10
51007;DHT22;37034;47.886;-3.904;2022-10-04T07:02:01;18.40;90.00
51007;DHT22;37034;47.886;-3.904;2022-10-04T07:04:50;18.30;90.00
51007;DHT22;37034;47.886;-3.904;2022-10-04T07:09:59;18.40;90.20
51007;DHT22;37034;47.886;-3.904;2022-10-04T07:12:26;18.40;90.20
51007;DHT22;37034;47.886;-3.904;2022-10-04T07:14:56;18.40;90.30
51007;DHT22;37034;47.886;-3.904;2022-10-04T07:17:39;18.50;90.30
51007;DHT22;37034;47.886;-3.904;2022-10-04T07:20:32;18.50;90.30
51007;DHT22;37034;47.886;-3.904;2022-10-04T07:23:21;18.50;90.20
51007;DHT22;37034;47.886;-3.904;2022-10-04T07:25:52;18.50;90.20
51007;DHT22;37034;47.886;-3.904;2022-10-04T07:28:30;18.50;90.20
51007;DHT22;37034;47.886;-3.904;2022-10-04T07:31:30;18.50;90.30
51007;DHT22;37034;47.886;-3.904;2022-10-04T07:34:01;18.60;90.30
51007;DHT22;37034;47.886;-3.904;2022-10-04T07:36:44;18.60;90.20
51007;DHT22;37034;47.886;-3.904;2022-10-04T07:39:27;18.60;90.30
51007;DHT22;37034;47.886;-3.904;2022-10-04T07:41:55;18.60;90.30
51007;DHT22;37034;47.886;-3.904;2022-10-04T07:46:51;18.60;90.30
51007;DHT22;37034;47.886;-3.904;2022-10-04T07:49:21;18.70;90.30
51007;DHT22;37034;47.886;-3.904;2022-10-04T07:51:58;18.70;90.30
51007;DHT22;37034;47.886;-3.904;2022-10-04T07:54:26;18.70;90.40
51007;DHT22;37034;47.886;-3.904;2022-10-04T07:57:00;18.70;90.50
51007;DHT22;37034;47.886;-3.904;2022-10-04T08:02:41;18.80;90.50
51007;DHT22;37034;47.886;-3.904;2022-10-04T08:05:21;18.80;90.50
51007;DHT22;37034;47.886;-3.904;2022-10-04T08:15:48;18.90;90.50
51007;DHT22;37034;47.886;-3.904;2022-10-04T08:18:35;19.00;90.60
51007;DHT22;37034;47.886;-3.904;2022-10-04T08:21:07;19.00;90.60
51007;DHT22;37034;47.886;-3.904;2022-10-04T08:38:33;19.30;90.20
51007;DHT22;37034;47.886;-3.904;2022-10-04T08:58:07;19.70;89.90
51007;DHT22;37034;47.886;-3.904;2022-10-04T09:04:19;19.80;90.00
51007;DHT22;37034;47.886;-3.904;2022-10-04T09:10:49;19.80;89.90
51007;DHT22;37034;47.886;-3.904;2022-10-04T09:15:51;19.90;89.90
51007;DHT22;37034;47.886;-3.904;2022-10-04T09:21:57;20.00;89.90
51007;DHT22;37034;47.886;-3.904;2022-10-04T09:24:37;20.00;89.90
51007;DHT22;37034;47.886;-3.904;2022-10-04T09:44:13;20.20;90.30
51007;DHT22;37034;47.886;-3.904;2022-10-04T09:46:51;20.20;90.30
51007;DHT22;37034;47.886;-3.904;2022-10-04T09:55:32;20.40;90.30
51007;DHT22;37034;47.886;-3.904;2022-10-04T10:04:06;20.60;89.90
51007;DHT22;37034;47.886;-3.904;2022-10-04T10:07:09;20.60;89.80
51007;DHT22;37034;47.886;-3.904;2022-10-04T10:44:12;20.90;89.70
51007;DHT22;37034;47.886;-3.904;2022-10-04T10:49:42;20.80;89.50
51007;DHT22;37034;47.886;-3.904;2022-10-04T10:52:51;20.80;89.40
51007;DHT22;37034;47.886;-3.904;2022-10-04T10:55:32;20.70;89.90
51007;DHT22;37034;47.886;-3.904;2022-10-04T11:20:58;20.90;89.40
51007;DHT22;37034;47.886;-3.904;2022-10-04T11:52:01;21.90;86.50
51007;DHT22;37034;47.886;-3.904;2022-10-04T12:09:09;21.90;85.80
51007;DHT22;37034;47.886;-3.904;2022-10-04T12:17:18;21.90;85.40
51007;DHT22;37034;47.886;-3.904;2022-10-04T12:22:37;21.80;85.20
51007;DHT22;37034;47.886;-3.904;2022-10-04T12:25:11;21.80;85.30
51007;DHT22;37034;47.886;-3.904;2022-10-04T12:44:19;21.70;84.60
51007;DHT22;37034;47.886;-3.904;2022-10-04T12:49:58;21.80;85.30
51007;DHT22;37034;47.886;-3.904;2022-10-04T12:52:33;21.90;84.90
51007;DHT22;37034;47.886;-3.904;2022-10-04T12:58:26;22.20;85.20
51007;DHT22;37034;47.886;-3.904;2022-10-04T13:01:01;22.30;84.70
51007;DHT22;37034;47.886;-3.904;2022-10-04T13:12:22;22.30;84.10
51007;DHT22;37034;47.886;-3.904;2022-10-04T13:20:11;22.20;84.10
51007;DHT22;37034;47.886;-3.904;2022-10-04T13:22:57;22.10;84.30
51007;DHT22;37034;47.886;-3.904;2022-10-04T13:30:31;22.10;84.30
51007;DHT22;37034;47.886;-3.904;2022-10-04T13:33:45;22.10;84.00
51007;DHT22;37034;47.886;-3.904;2022-10-04T13:36:19;22.10;84.00
51007;DHT22;37034;47.886;-3.904;2022-10-04T13:41:56;22.10;84.50
51007;DHT22;37034;47.886;-3.904;2022-10-04T13:50:32;22.10;84.20
51007;DHT22;37034;47.886;-3.904;2022-10-04T14:08:02;22.00;84.10
51007;DHT22;37034;47.886;-3.904;2022-10-04T14:41:23;21.60;85.40
51007;DHT22;37034;47.886;-3.904;2022-10-04T14:46:59;21.60;85.50
51007;DHT22;37034;47.886;-3.904;2022-10-04T15:06:56;21.40;86.00
51007;DHT22;37034;47.886;-3.904;2022-10-04T15:14:24;21.30;86.30
51007;DHT22;37034;47.886;-3.904;2022-10-04T15:16:57;21.20;86.60
51007;DHT22;37034;47.886;-3.904;2022-10-04T15:22:24;21.00;87.00
51007;DHT22;37034;47.886;-3.904;2022-10-04T15:24:53;21.00;87.30
51007;DHT22;37034;47.886;-3.904;2022-10-04T15:30:19;21.10;87.30
51007;DHT22;37034;47.886;-3.904;2022-10-04T15:33:04;21.00;87.30
51007;DHT22;37034;47.886;-3.904;2022-10-04T15:35:49;21.00;87.10
51007;DHT22;37034;47.886;-3.904;2022-10-04T15:41:20;21.00;86.90
51007;DHT22;37034;47.886;-3.904;2022-10-04T15:50:51;21.00;86.30
51007;DHT22;37034;47.886;-3.904;2022-10-04T15:58:29;20.70;86.50
51007;DHT22;37034;47.886;-3.904;2022-10-04T16:09:40;20.80;86.60
51007;DHT22;37034;47.886;-3.904;2022-10-04T16:12:27;20.70;86.60
51007;DHT22;37034;47.886;-3.904;2022-10-04T16:15:19;20.70;86.70
51007;DHT22;37034;47.886;-3.904;2022-10-04T16:18:00;20.80;87.00
51007;DHT22;37034;47.886;-3.904;2022-10-04T16:23:27;20.70;86.10
51007;DHT22;37034;47.886;-3.904;2022-10-04T16:25:55;20.70;86.40
51007;DHT22;37034;47.886;-3.904;2022-10-04T16:33:55;20.60;86.30
51007;DHT22;37034;47.886;-3.904;2022-10-04T16:36:41;20.50;86.10
51007;DHT22;37034;47.886;-3.904;2022-10-04T16:39:09;20.50;86.50
51007;DHT22;37034;47.886;-3.904;2022-10-04T16:41:58;20.50;86.40
51007;DHT22;37034;47.886;-3.904;2022-10-04T16:44:38;20.40;86.60
51007;DHT22;37034;47.886;-3.904;2022-10-04T16:50:04;20.40;87.20
51007;DHT22;37034;47.886;-3.904;2022-10-04T16:53:19;20.40;87.20
51007;DHT22;37034;47.886;-3.904;2022-10-04T16:55:53;20.30;87.00
51007;DHT22;37034;47.886;-3.904;2022-10-04T16:58:34;20.30;87.20
51007;DHT22;37034;47.886;-3.904;2022-10-04T17:04:15;20.30;87.50
51007;DHT22;37034;47.886;-3.904;2022-10-04T17:17:43;20.30;87.70
51007;DHT22;37034;47.886;-3.904;2022-10-04T17:23:27;20.20;87.70
51007;DHT22;37034;47.886;-3.904;2022-10-04T17:31:41;20.00;88.00
51007;DHT22;37034;47.886;-3.904;2022-10-04T17:36:50;20.00;88.20
51007;DHT22;37034;47.886;-3.904;2022-10-04T17:39:34;20.00;88.20
51007;DHT22;37034;47.886;-3.904;2022-10-04T17:42:34;20.00;88.20
51007;DHT22;37034;47.886;-3.904;2022-10-04T17:48:15;20.00;88.50
51007;DHT22;37034;47.886;-3.904;2022-10-04T17:54:19;19.90;88.60
51007;DHT22;37034;47.886;-3.904;2022-10-04T17:59:43;19.90;88.70
51007;DHT22;37034;47.886;-3.904;2022-10-04T18:02:25;19.90;88.90
51007;DHT22;37034;47.886;-3.904;2022-10-04T18:05:02;19.80;88.90
51007;DHT22;37034;47.886;-3.904;2022-10-04T18:07:46;19.80;88.90
51007;DHT22;37034;47.886;-3.904;2022-10-04T18:10:31;19.80;89.10
51007;DHT22;37034;47.886;-3.904;2022-10-04T18:18:23;19.90;89.40
51007;DHT22;37034;47.886;-3.904;2022-10-04T18:23:25;19.80;89.30
51007;DHT22;37034;47.886;-3.904;2022-10-04T18:26:08;19.80;89.60
51007;DHT22;37034;47.886;-3.904;2022-10-04T18:28:35;19.70;90.00
51007;DHT22;37034;47.886;-3.904;2022-10-04T18:33:51;19.80;90.00
51007;DHT22;37034;47.886;-3.904;2022-10-04T18:36:28;19.80;90.00
51007;DHT22;37034;47.886;-3.904;2022-10-04T18:39:17;19.70;90.20
51007;DHT22;37034;47.886;-3.904;2022-10-04T18:42:14;19.80;90.20
51007;DHT22;37034;47.886;-3.904;2022-10-04T18:47:38;19.70;90.30
51007;DHT22;37034;47.886;-3.904;2022-10-04T18:56:06;19.70;90.50
51007;DHT22;37034;47.886;-3.904;2022-10-04T19:01:41;19.70;90.60
51007;DHT22;37034;47.886;-3.904;2022-10-04T19:04:30;19.70;90.60
51007;DHT22;37034;47.886;-3.904;2022-10-04T19:07:22;19.70;90.80
51007;DHT22;37034;47.886;-3.904;2022-10-04T19:10:15;19.70;90.90
51007;DHT22;37034;47.886;-3.904;2022-10-04T19:15:28;19.60;90.90
51007;DHT22;37034;47.886;-3.904;2022-10-04T19:18:21;19.60;91.00
51007;DHT22;37034;47.886;-3.904;2022-10-04T19:20:57;19.60;91.00
51007;DHT22;37034;47.886;-3.904;2022-10-04T19:23:33;19.60;91.00
51007;DHT22;37034;47.886;-3.904;2022-10-04T19:26:24;19.70;91.00
51007;DHT22;37034;47.886;-3.904;2022-10-04T19:37:32;19.70;91.20
51007;DHT22;37034;47.886;-3.904;2022-10-04T19:40:08;19.70;91.10
51007;DHT22;37034;47.886;-3.904;2022-10-04T19:43:09;19.70;91.10
51007;DHT22;37034;47.886;-3.904;2022-10-04T19:48:22;19.60;91.30
51007;DHT22;37034;47.886;-3.904;2022-10-04T19:50:54;19.70;91.30
51007;DHT22;37034;47.886;-3.904;2022-10-04T19:53:32;19.60;91.30
51007;DHT22;37034;47.886;-3.904;2022-10-04T19:56:00;19.60;91.40
51007;DHT22;37034;47.886;-3.904;2022-10-04T19:58:40;19.60;91.40
51007;DHT22;37034;47.886;-3.904;2022-10-04T20:01:21;19.60;91.60
51007;DHT22;37034;47.886;-3.904;2022-10-04T20:03:51;19.60;91.60
51007;DHT22;37034;47.886;-3.904;2022-10-04T20:06:57;19.60;91.60
51007;DHT22;37034;47.886;-3.904;2022-10-04T20:17:45;19.60;91.90
51007;DHT22;37034;47.886;-3.904;2022-10-04T20:20:14;19.60;91.90
51007;DHT22;37034;47.886;-3.904;2022-10-04T20:33:44;19.50;91.90
51007;DHT22;37034;47.886;-3.904;2022-10-04T20:42:26;19.60;92.00
51007;DHT22;37034;47.886;-3.904;2022-10-04T20:45:01;19.70;91.90
51007;DHT22;37034;47.886;-3.904;2022-10-04T20:50:19;19.60;91.80
51007;DHT22;37034;47.886;-3.904;2022-10-04T20:52:48;19.60;91.80
51007;DHT22;37034;47.886;-3.904;2022-10-04T20:55:22;19.60;91.60
51007;DHT22;37034;47.886;-3.904;2022-10-04T20:58:02;19.60;91.70
51007;DHT22;37034;47.886;-3.904;2022-10-04T21:00:31;19.70;91.70
51007;DHT22;37034;47.886;-3.904;2022-10-04T21:03:17;19.60;91.60
51007;DHT22;37034;47.886;-3.904;2022-10-04T21:05:44;19.60;91.50
51007;DHT22;37034;47.886;-3.904;2022-10-04T21:08:21;19.60;91.50
51007;DHT22;37034;47.886;-3.904;2022-10-04T21:11:16;19.50;91.50
51007;DHT22;37034;47.886;-3.904;2022-10-04T21:13:53;19.50;91.70
51007;DHT22;37034;47.886;-3.904;2022-10-04T21:16:41;19.50;91.70
51007;DHT22;37034;47.886;-3.904;2022-10-04T21:22:05;19.50;91.80
51007;DHT22;37034;47.886;-3.904;2022-10-04T21:24:37;19.60;91.70
51007;DHT22;37034;47.886;-3.904;2022-10-04T21:27:06;19.50;91.80
51007;DHT22;37034;47.886;-3.904;2022-10-04T21:29:33;19.50;91.70
51007;DHT22;37034;47.886;-3.904;2022-10-04T21:31:59;19.60;91.70
51007;DHT22;37034;47.886;-3.904;2022-10-04T21:34:25;19.50;91.80
51007;DHT22;37034;47.886;-3.904;2022-10-04T21:36:51;19.50;91.90
51007;DHT22;37034;47.886;-3.904;2022-10-04T21:39:17;19.50;91.80
51007;DHT22;37034;47.886;-3.904;2022-10-04T21:41:43;19.50;91.70
51007;DHT22;37034;47.886;-3.904;2022-10-04T21:44:09;19.50;91.60
51007;DHT22;37034;47.886;-3.904;2022-10-04T21:46:35;19.50;91.70
51007;DHT22;37034;47.886;-3.904;2022-10-04T21:49:04;19.50;91.70
51007;DHT22;37034;47.886;-3.904;2022-10-04T21:51:29;19.60;92.00
51007;DHT22;37034;47.886;-3.904;2022-10-04T21:54:04;19.60;91.80
51007;DHT22;37034;47.886;-3.904;2022-10-04T21:56:30;19.70;91.80
51007;DHT22;37034;47.886;-3.904;2022-10-04T21:58:56;19.70;91.70
51007;DHT22;37034;47.886;-3.904;2022-10-04T22:01:22;19.80;91.70
51007;DHT22;37034;47.886;-3.904;2022-10-04T22:03:48;19.80;91.50
51007;DHT22;37034;47.886;-3.904;2022-10-04T22:06:13;19.80;91.40
51007;DHT22;37034;47.886;-3.904;2022-10-04T22:08:39;19.70;91.60
51007;DHT22;37034;47.886;-3.904;2022-10-04T22:11:05;19.70;91.50
51007;DHT22;37034;47.886;-3.904;2022-10-04T22:13:31;19.80;91.50
51007;DHT22;37034;47.886;-3.904;2022-10-04T22:15:56;19.80;91.50
51007;DHT22;37034;47.886;-3.904;2022-10-04T22:18:22;19.80;91.50
51007;DHT22;37034;47.886;-3.904;2022-10-04T22:20:47;19.80;91.40
51007;DHT22;37034;47.886;-3.904;2022-10-04T22:23:20;19.80;91.30
51007;DHT22;37034;47.886;-3.904;2022-10-04T22:25:45;19.90;91.20
51007;DHT22;37034;47.886;-3.904;2022-10-04T22:28:24;19.90;91.10
51007;DHT22;37034;47.886;-3.904;2022-10-04T22:30:50;19.80;91.10
51007;DHT22;37034;47.886;-3.904;2022-10-04T22:33:34;19.80;91.20
51007;DHT22;37034;47.886;-3.904;2022-10-04T22:36:14;19.80;91.30
51007;DHT22;37034;47.886;-3.904;2022-10-04T22:38:42;19.80;91.10
51007;DHT22;37034;47.886;-3.904;2022-10-04T22:41:12;19.80;91.10
51007;DHT22;37034;47.886;-3.904;2022-10-04T22:43:38;19.80;91.20
51007;DHT22;37034;47.886;-3.904;2022-10-04T22:46:03;19.70;91.20
51007;DHT22;37034;47.886;-3.904;2022-10-04T22:48:29;19.70;91.20
51007;DHT22;37034;47.886;-3.904;2022-10-04T22:50:56;19.60;91.30
51007;DHT22;37034;47.886;-3.904;2022-10-04T22:53:22;19.60;91.40
51007;DHT22;37034;47.886;-3.904;2022-10-04T22:55:49;19.60;91.40
51007;DHT22;37034;47.886;-3.904;2022-10-04T22:58:16;19.70;91.40
51007;DHT22;37034;47.886;-3.904;2022-10-04T23:00:43;19.70;91.40
51007;DHT22;37034;47.886;-3.904;2022-10-04T23:03:30;19.60;91.40
51007;DHT22;37034;47.886;-3.904;2022-10-04T23:05:57;19.60;91.40
51007;DHT22;37034;47.886;-3.904;2022-10-04T23:08:23;19.70;91.40
51007;DHT22;37034;47.886;-3.904;2022-10-04T23:10:54;19.60;91.40
51007;DHT22;37034;47.886;-3.904;2022-10-04T23:13:23;19.60;91.50
51007;DHT22;37034;47.886;-3.904;2022-10-04T23:15:49;19.50;91.40
51007;DHT22;37034;47.886;-3.904;2022-10-04T23:18:16;19.60;91.50
51007;DHT22;37034;47.886;-3.904;2022-10-04T23:20:43;19.50;91.40
51007;DHT22;37034;47.886;-3.904;2022-10-04T23:23:10;19.50;91.50
51007;DHT22;37034;47.886;-3.904;2022-10-04T23:25:41;19.50;91.50
51007;DHT22;37034;47.886;-3.904;2022-10-04T23:28:15;19.50;91.50
51007;DHT22;37034;47.886;-3.904;2022-10-04T23:30:42;19.60;91.60
51007;DHT22;37034;47.886;-3.904;2022-10-04T23:33:19;19.60;91.60
51007;DHT22;37034;47.886;-3.904;2022-10-04T23:35:46;19.50;91.60
51007;DHT22;37034;47.886;-3.904;2022-10-04T23:38:13;19.50;91.60
51007;DHT22;37034;47.886;-3.904;2022-10-04T23:40:40;19.50;91.70
51007;DHT22;37034;47.886;-3.904;2022-10-04T23:43:22;19.50;91.50
51007;DHT22;37034;47.886;-3.904;2022-10-04T23:45:51;19.50;91.60
51007;DHT22;37034;47.886;-3.904;2022-10-04T23:48:25;19.50;91.70
51007;DHT22;37034;47.886;-3.904;2022-10-04T23:50:53;19.50;91.80
51007;DHT22;37034;47.886;-3.904;2022-10-04T23:53:26;19.50;91.80
51007;DHT22;37034;47.886;-3.904;2022-10-04T23:55:58;19.50;91.80
51007;DHT22;37034;47.886;-3.904;2022-10-04T23:58:29;19.50;91.90
